Time;durP1;ratioP1;P1;durP2;ratioP2;P2;SDS_P1;SDS_P2;PMS_P1;PMS_P2;Temp;Humidity;BMP_temperature;BMP_pressure;BME280_temperature;BME280_humidity;BME280_pressure;Samples;Min_cycle;Max_cycle;Signal;HPM_P1;HPM_P2
2021/12/01 00:00:43;;;;;;;0.20;0.20;;;;;;;;;;5059710;28;20397;-88
2021/12/01 00:03:09;;;;;;;0.57;0.20;;;;;;;;;;5059264;28;20068;-89
2021/12/01 00:05:34;;;;;;;0.40;0.20;;;;;;;;;;5059591;28;20484;-89
2021/12/01 00:08:00;;;;;;;0.10;0.10;;;;;;;;;;5059833;28;20103;-88
2021/12/01 00:10:25;;;;;;;0.20;0.20;;;;;;;;;;5059538;28;20427;-89
2021/12/01 00:12:50;;;;;;;0.32;0.25;;;;;;;;;;5060087;28;20079;-88
2021/12/01 00:15:16;;;;;;;0.55;0.25;;;;;;;;;;5059671;28;20040;-88
2021/12/01 00:17:41;;;;;;;0.43;0.35;;;;;;;;;;5058959;28;20504;-89
2021/12/01 00:20:06;;;;;;;0.20;0.20;;;;;;;;;;5041798;28;20032;-89
2021/12/01 00:22:32;;;;;;;0.47;0.20;;;;;;;;;;5059797;28;20040;-89
2021/12/01 00:24:57;;;;;;;0.15;0.13;;;;;;;;;;5041184;28;20191;-88
2021/12/01 00:27:22;;;;;;;0.57;0.20;;;;;;;;;;5041944;28;20055;-89
2021/12/01 00:29:49;;;;;;;0.50;0.30;;;;;;;;;;5059530;28;20029;-89
2021/12/01 00:32:15;;;;;;;0.55;0.40;;;;;;;;;;5040293;28;20465;-89
2021/12/01 00:34:40;;;;;;;0.20;0.20;;;;;;;;;;5058054;28;20068;-89
2021/12/01 00:37:05;;;;;;;0.55;0.20;;;;;;;;;;5058739;28;20443;-88
2021/12/01 00:39:31;;;;;;;0.20;0.20;;;;;;;;;;5057941;28;20107;-88
2021/12/01 00:41:58;;;;;;;0.60;0.10;;;;;;;;;;5041577;28;20081;-89
2021/12/01 00:44:24;;;;;;;0.40;0.25;;;;;;;;;;5058550;28;20048;-88
2021/12/01 00:47:04;;;;;;;0.15;0.15;;;;;;;;;;5057137;28;20029;-89
2021/12/01 00:49:29;;;;;;;0.10;0.10;;;;;;;;;;5058898;28;20064;-88
2021/12/01 00:51:54;;;;;;;1.23;0.20;;;;;;;;;;5059080;28;20025;-88
2021/12/01 00:54:20;;;;;;;2.30;0.80;;;;;;;;;;5060011;28;20033;-89
2021/12/01 00:56:45;;;;;;;0.13;0.13;;;;;;;;;;5058469;28;20031;-87
2021/12/01 00:59:11;;;;;;;0.05;0.05;;;;;;;;;;5057354;28;20035;-88
2021/12/01 01:01:36;;;;;;;0.20;0.15;;;;;;;;;;5059264;28;20037;-88
2021/12/01 01:04:01;;;;;;;0.63;0.20;;;;;;;;;;5059383;28;20071;-88
2021/12/01 01:06:27;;;;;;;0.20;0.20;;;;;;;;;;5058899;28;20496;-88
2021/12/01 01:08:52;;;;;;;0.30;0.20;;;;;;;;;;5045932;28;20488;-88
2021/12/01 01:16:45;;;;;;;;;;;;;;;;;;5060334;28;20037;-86
2021/12/01 01:19:11;;;;;;;0.52;0.30;;;;;;;;;;5060928;28;20015;-89
2021/12/01 01:21:36;;;;;;;0.20;0.20;;;;;;;;;;5066786;28;20040;-88
2021/12/01 01:24:02;;;;;;;0.10;0.10;;;;;;;;;;5059333;28;20063;-88
2021/12/01 01:26:27;;;;;;;0.30;0.20;;;;;;;;;;5061791;28;20029;-89
2021/12/01 01:28:52;;;;;;;0.15;0.13;;;;;;;;;;5059074;28;20515;-89
2021/12/01 01:31:18;;;;;;;0.17;0.17;;;;;;;;;;5058281;28;20040;-88
2021/12/01 01:33:43;;;;;;;0.20;0.10;;;;;;;;;;5059814;28;20090;-88
2021/12/01 01:36:08;;;;;;;0.17;0.17;;;;;;;;;;5058584;28;20395;-88
2021/12/01 01:38:34;;;;;;;0.10;0.10;;;;;;;;;;5058379;28;20029;-89
2021/12/01 01:40:59;;;;;;;0.10;0.10;;;;;;;;;;5058036;28;20449;-88
2021/12/01 01:43:25;;;;;;;0.10;0.10;;;;;;;;;;5061353;28;20378;-89
2021/12/01 01:45:50;;;;;;;0.22;0.22;;;;;;;;;;5059514;28;20029;-88
2021/12/01 01:48:17;;;;;;;1.25;0.30;;;;;;;;;;5043266;28;20052;-89
2021/12/01 01:50:43;;;;;;;0.20;0.20;;;;;;;;;;5064412;28;20037;-89
2021/12/01 01:53:08;;;;;;;0.35;0.30;;;;;;;;;;5068562;28;20023;-89
2021/12/01 01:55:33;;;;;;;0.25;0.22;;;;;;;;;;5058822;28;20092;-89
2021/12/01 01:57:59;;;;;;;0.43;0.30;;;;;;;;;;5062472;28;20064;-88
2021/12/01 02:00:24;;;;;;;0.90;0.40;;;;;;;;;;5059214;28;20461;-89
2021/12/01 02:02:50;;;;;;;0.52;0.40;;;;;;;;;;5059997;28;20041;-88
2021/12/01 02:05:16;;;;;;;0.50;0.47;;;;;;;;;;5062635;28;20037;-89
2021/12/01 02:07:43;;;;;;;0.50;0.30;;;;;;;;;;5059901;28;20033;-88
2021/12/01 02:10:08;;;;;;;0.57;0.50;;;;;;;;;;5062888;28;20492;-89
2021/12/01 02:12:33;;;;;;;0.40;0.40;;;;;;;;;;5059975;28;20036;-88
2021/12/01 02:14:59;;;;;;;0.63;0.55;;;;;;;;;;5056643;28;20445;-89
2021/12/01 02:17:24;;;;;;;0.93;0.50;;;;;;;;;;5056914;28;20094;-88
2021/12/01 02:19:49;;;;;;;0.80;0.70;;;;;;;;;;5056942;28;20437;-88
2021/12/01 02:22:15;;;;;;;1.35;0.88;;;;;;;;;;5057288;28;20059;-88
2021/12/01 02:24:40;;;;;;;0.63;0.55;;;;;;;;;;5039162;28;20542;-89
2021/12/01 02:27:06;;;;;;;0.43;0.40;;;;;;;;;;5054579;28;20056;-88
2021/12/01 02:29:31;;;;;;;0.88;0.50;;;;;;;;;;5057301;28;20037;-89
2021/12/01 02:31:56;;;;;;;0.55;0.32;;;;;;;;;;5055635;28;20477;-89
2021/12/01 02:34:22;;;;;;;0.60;0.50;;;;;;;;;;5056775;28;20037;-89
2021/12/01 02:36:48;;;;;;;0.80;0.57;;;;;;;;;;5055316;28;20040;-89
2021/12/01 02:39:15;;;;;;;0.52;0.50;;;;;;;;;;5038825;28;20112;-89
2021/12/01 02:41:41;;;;;;;0.38;0.35;;;;;;;;;;5054998;28;20040;-88
2021/12/01 02:44:06;;;;;;;0.88;0.45;;;;;;;;;;5055155;28;20028;-88
2021/12/01 02:46:32;;;;;;;0.40;0.40;;;;;;;;;;5056394;28;20035;-88
2021/12/01 02:48:57;;;;;;;0.68;0.40;;;;;;;;;;5055031;28;20060;-89
2021/12/01 02:51:27;;;;;;;0.40;0.40;;;;;;;;;;5055705;28;20397;-88
2021/12/01 02:53:52;;;;;;;2.05;0.50;;;;;;;;;;5056515;28;20124;-88
2021/12/01 02:56:18;;;;;;;0.47;0.40;;;;;;;;;;5054908;28;20076;-88
2021/12/01 02:58:44;;;;;;;0.55;0.50;;;;;;;;;;5055733;28;20021;-88
2021/12/01 03:01:09;;;;;;;0.75;0.32;;;;;;;;;;5055170;28;20084;-88
2021/12/01 03:03:34;;;;;;;1.10;0.55;;;;;;;;;;5056736;28;20400;-88
2021/12/01 03:06:00;;;;;;;0.52;0.50;;;;;;;;;;5038160;28;20530;-88
2021/12/01 03:08:26;;;;;;;0.40;0.40;;;;;;;;;;5056473;28;20013;-89
2021/12/01 03:10:51;;;;;;;0.50;0.38;;;;;;;;;;5055096;28;20404;-89
2021/12/01 03:13:17;;;;;;;0.63;0.43;;;;;;;;;;5055542;28;20044;-88
2021/12/01 03:15:42;;;;;;;0.90;0.50;;;;;;;;;;5055834;28;20044;-88
2021/12/01 03:18:07;;;;;;;0.52;0.52;;;;;;;;;;5055041;28;20084;-88
2021/12/01 03:20:33;;;;;;;0.55;0.50;;;;;;;;;;5055573;28;20071;-88
2021/12/01 03:22:58;;;;;;;0.65;0.52;;;;;;;;;;5055953;28;20076;-88
2021/12/01 03:25:23;;;;;;;0.40;0.40;;;;;;;;;;5055877;28;20086;-88
2021/12/01 03:27:49;;;;;;;0.50;0.50;;;;;;;;;;5055315;28;20036;-88
2021/12/01 03:30:14;;;;;;;0.50;0.50;;;;;;;;;;5057611;28;20144;-88
2021/12/01 03:32:39;;;;;;;0.75;0.68;;;;;;;;;;5058834;28;20017;-88
2021/12/01 03:35:05;;;;;;;0.75;0.60;;;;;;;;;;5042104;28;20040;-88
2021/12/01 03:37:30;;;;;;;0.55;0.45;;;;;;;;;;5059209;28;20428;-88
2021/12/01 03:39:56;;;;;;;1.58;0.68;;;;;;;;;;5059129;28;20029;-88
2021/12/01 03:42:22;;;;;;;0.60;0.43;;;;;;;;;;5058052;28;20108;-87
2021/12/01 03:44:47;;;;;;;1.15;0.60;;;;;;;;;;5058446;28;20044;-87
2021/12/01 03:47:12;;;;;;;0.73;0.70;;;;;;;;;;5060009;28;20037;-88
2021/12/01 03:49:38;;;;;;;0.75;0.70;;;;;;;;;;5042088;28;20469;-88
2021/12/01 03:52:05;;;;;;;0.60;0.60;;;;;;;;;;5059815;28;20542;-88
2021/12/01 03:54:30;;;;;;;1.25;0.80;;;;;;;;;;5059951;28;20028;-88
2021/12/01 03:56:56;;;;;;;0.80;0.68;;;;;;;;;;5058695;28;20060;-88
2021/12/01 03:59:21;;;;;;;0.60;0.60;;;;;;;;;;5058692;28;20028;-89
2021/12/01 04:01:46;;;;;;;3.20;0.82;;;;;;;;;;5041833;28;20091;-88
2021/12/01 04:04:12;;;;;;;1.15;0.68;;;;;;;;;;5059974;28;20037;-88
2021/12/01 04:06:37;;;;;;;0.85;0.70;;;;;;;;;;5059530;28;20095;-88
2021/12/01 04:09:02;;;;;;;0.63;0.63;;;;;;;;;;5058484;28;20033;-88
2021/12/01 04:11:28;;;;;;;1.00;0.90;;;;;;;;;;5059154;28;20381;-88
2021/12/01 04:13:56;;;;;;;0.90;0.80;;;;;;;;;;5059203;28;20086;-88
2021/12/01 04:16:21;;;;;;;0.73;0.73;;;;;;;;;;5058034;28;20029;-88
2021/12/01 04:18:47;;;;;;;0.80;0.73;;;;;;;;;;5059129;28;20029;-88
2021/12/01 04:21:12;;;;;;;0.70;0.70;;;;;;;;;;5058987;28;20033;-88
2021/12/01 04:23:37;;;;;;;0.60;0.60;;;;;;;;;;5059388;28;20100;-88
2021/12/01 04:26:03;;;;;;;1.50;0.80;;;;;;;;;;5059243;28;20029;-88
2021/12/01 04:28:29;;;;;;;0.82;0.80;;;;;;;;;;5058755;28;20029;-88
2021/12/01 04:30:54;;;;;;;1.20;0.75;;;;;;;;;;5059300;28;20092;-88
2021/12/01 04:33:19;;;;;;;1.77;0.77;;;;;;;;;;5058560;28;20029;-88
2021/12/01 04:35:47;;;;;;;0.60;0.60;;;;;;;;;;5057596;28;20037;-89
2021/12/01 04:38:12;;;;;;;0.93;0.75;;;;;;;;;;5057456;28;20086;-88
2021/12/01 04:40:37;;;;;;;1.40;0.70;;;;;;;;;;5057220;28;20053;-88
2021/12/01 04:43:03;;;;;;;3.72;1.42;;;;;;;;;;5056955;28;20128;-88
2021/12/01 04:45:31;;;;;;;1.75;1.30;;;;;;;;;;5057229;28;20029;-88
2021/12/01 04:47:56;;;;;;;1.38;1.13;;;;;;;;;;5057591;28;20056;-88
2021/12/01 04:50:22;;;;;;;1.60;1.10;;;;;;;;;;5058710;28;20082;-89
2021/12/01 04:52:47;;;;;;;1.35;0.98;;;;;;;;;;5057559;28;20029;-89
2021/12/01 04:55:12;;;;;;;1.27;0.90;;;;;;;;;;5057013;28;20033;-88
2021/12/01 04:57:38;;;;;;;1.17;0.90;;;;;;;;;;5057918;28;20036;-88
2021/12/01 05:00:03;;;;;;;1.65;1.15;;;;;;;;;;5057630;28;20041;-90
2021/12/01 05:02:28;;;;;;;1.70;1.10;;;;;;;;;;5059034;28;20097;-89
2021/12/01 05:04:54;;;;;;;2.08;1.30;;;;;;;;;;5058218;28;20079;-88
2021/12/01 05:07:19;;;;;;;6.63;2.40;;;;;;;;;;5057985;28;20484;-88
2021/12/01 05:09:44;;;;;;;5.03;2.53;;;;;;;;;;5058622;28;20041;-87
2021/12/01 05:12:10;;;;;;;2.78;1.20;;;;;;;;;;5039703;28;20061;-89
2021/12/01 05:14:35;;;;;;;1.83;1.27;;;;;;;;;;5058146;28;20056;-88
2021/12/01 05:17:00;;;;;;;1.70;0.95;;;;;;;;;;5057077;28;20036;-88
2021/12/01 05:19:26;;;;;;;2.92;1.40;;;;;;;;;;5058106;28;20426;-89
2021/12/01 05:21:51;;;;;;;2.50;1.20;;;;;;;;;;5057053;28;20094;-88
2021/12/01 05:24:16;;;;;;;1.20;1.05;;;;;;;;;;5040001;28;20511;-88
2021/12/01 05:26:42;;;;;;;2.00;1.00;;;;;;;;;;5039980;28;20036;-88
2021/12/01 05:29:07;;;;;;;1.33;1.10;;;;;;;;;;5056817;28;20041;-88
2021/12/01 05:31:32;;;;;;;1.55;1.20;;;;;;;;;;5040596;28;20514;-88
2021/12/01 05:33:58;;;;;;;1.40;1.23;;;;;;;;;;5057830;28;20029;-89
2021/12/01 05:36:23;;;;;;;2.13;1.65;;;;;;;;;;5056472;28;20061;-88
2021/12/01 05:38:48;;;;;;;3.50;2.33;;;;;;;;;;5057984;28;20048;-88
2021/12/01 05:41:14;;;;;;;8.18;3.72;;;;;;;;;;5057978;28;20028;-88
2021/12/01 05:43:39;;;;;;;2.17;1.30;;;;;;;;;;5057132;28;20028;-88
2021/12/01 05:46:04;;;;;;;1.23;1.00;;;;;;;;;;5057823;28;20045;-88
2021/12/01 05:48:30;;;;;;;2.25;1.27;;;;;;;;;;5057404;28;20167;-88
2021/12/01 05:50:55;;;;;;;3.83;2.03;;;;;;;;;;5056930;28;20404;-88
2021/12/01 05:53:20;;;;;;;4.93;2.03;;;;;;;;;;5058024;28;20039;-87
2021/12/01 05:55:46;;;;;;;4.55;1.80;;;;;;;;;;5056914;28;20033;-88
2021/12/01 05:58:11;;;;;;;2.40;1.60;;;;;;;;;;5057292;28;20037;-88
2021/12/01 06:00:38;;;;;;;5.30;1.50;;;;;;;;;;5056859;28;20049;-88
2021/12/01 06:03:03;;;;;;;1.75;1.40;;;;;;;;;;5039435;28;20076;-88
2021/12/01 06:05:28;;;;;;;1.52;1.15;;;;;;;;;;5057312;28;20039;-88
2021/12/01 06:07:54;;;;;;;1.40;1.20;;;;;;;;;;5057505;28;20040;-87
2021/12/01 06:10:19;;;;;;;1.85;1.13;;;;;;;;;;5057387;28;20557;-88
2021/12/01 06:12:45;;;;;;;1.38;1.10;;;;;;;;;;5056376;28;20628;-88
2021/12/01 06:15:10;;;;;;;1.98;1.30;;;;;;;;;;5057308;28;20056;-88
2021/12/01 06:17:35;;;;;;;2.25;1.38;;;;;;;;;;5056254;28;20041;-88
2021/12/01 06:20:01;;;;;;;3.70;1.60;;;;;;;;;;5056470;28;20029;-88
2021/12/01 06:22:26;;;;;;;1.80;1.40;;;;;;;;;;5058409;28;20033;-87
2021/12/01 06:24:51;;;;;;;1.42;1.20;;;;;;;;;;5056032;28;20116;-87
2021/12/01 06:27:17;;;;;;;1.38;0.95;;;;;;;;;;5055893;28;20075;-87
2021/12/01 06:29:42;;;;;;;1.50;1.10;;;;;;;;;;5056186;28;20087;-87
2021/12/01 06:32:07;;;;;;;1.17;1.00;;;;;;;;;;5056572;28;20025;-87
2021/12/01 06:34:33;;;;;;;1.10;1.00;;;;;;;;;;5056560;28;20083;-87
2021/12/01 06:36:58;;;;;;;3.20;1.00;;;;;;;;;;5055982;28;20096;-87
2021/12/01 06:39:23;;;;;;;1.20;1.10;;;;;;;;;;5056906;28;20366;-87
2021/12/01 06:41:49;;;;;;;2.17;1.30;;;;;;;;;;5055843;28;20032;-87
2021/12/01 06:44:14;;;;;;;3.15;1.30;;;;;;;;;;5057528;28;20029;-87
2021/12/01 06:46:40;;;;;;;1.33;1.13;;;;;;;;;;5057130;28;20469;-88
2021/12/01 06:49:05;;;;;;;2.40;1.33;;;;;;;;;;5055651;28;20033;-88
2021/12/01 06:51:30;;;;;;;3.42;1.30;;;;;;;;;;5056775;28;20100;-87
2021/12/01 06:53:56;;;;;;;1.52;1.20;;;;;;;;;;5057525;28;20090;-88
2021/12/01 06:56:21;;;;;;;2.35;1.50;;;;;;;;;;5054646;28;20501;-87
2021/12/01 06:58:46;;;;;;;1.50;1.23;;;;;;;;;;5056544;28;20409;-88
2021/12/01 07:01:12;;;;;;;1.70;1.40;;;;;;;;;;5042810;28;20041;-87
2021/12/01 07:03:37;;;;;;;77.13;28.23;;;;;;;;;;5058040;28;20036;-88
2021/12/01 07:06:02;;;;;;;50.80;23.20;;;;;;;;;;5056037;28;20087;-88
2021/12/01 07:08:28;;;;;;;100.05;42.15;;;;;;;;;;5058222;28;20017;-87
2021/12/01 07:10:53;;;;;;;4.10;2.72;;;;;;;;;;5058882;28;20392;-88
2021/12/01 07:13:18;;;;;;;6.20;3.88;;;;;;;;;;5057462;28;20060;-88
2021/12/01 07:15:44;;;;;;;7.60;4.35;;;;;;;;;;5057241;28;20056;-88
2021/12/01 07:18:09;;;;;;;8.93;4.50;;;;;;;;;;5041137;28;20025;-88
2021/12/01 07:20:34;;;;;;;5.13;2.20;;;;;;;;;;5057994;28;20040;-88
2021/12/01 07:23:02;;;;;;;11.30;5.88;;;;;;;;;;5056888;28;20072;-88
2021/12/01 07:25:27;;;;;;;33.42;13.40;;;;;;;;;;5057273;28;20025;-88
2021/12/01 07:27:53;;;;;;;49.17;19.08;;;;;;;;;;5041516;28;20037;-88
2021/12/01 07:30:18;;;;;;;9.50;4.35;;;;;;;;;;5057849;28;20087;-87
2021/12/01 07:32:43;;;;;;;6.45;2.80;;;;;;;;;;5058534;28;20033;-89
2021/12/01 07:35:09;;;;;;;2.35;1.50;;;;;;;;;;5056805;28;20087;-88
2021/12/01 07:37:34;;;;;;;2.38;1.50;;;;;;;;;;5057854;28;20440;-88
2021/12/01 07:39:59;;;;;;;2.33;1.50;;;;;;;;;;5058477;28;20366;-89
2021/12/01 07:42:25;;;;;;;3.13;1.60;;;;;;;;;;5058342;28;20428;-88
2021/12/01 07:44:50;;;;;;;3.38;1.63;;;;;;;;;;5059500;28;20108;-88
2021/12/01 07:47:15;;;;;;;7.13;2.22;;;;;;;;;;5059517;28;20068;-89
2021/12/01 07:49:41;;;;;;;3.83;1.90;;;;;;;;;;5057256;28;20052;-88
2021/12/01 07:52:06;;;;;;;3.75;1.80;;;;;;;;;;5058660;28;20025;-89
2021/12/01 07:54:31;;;;;;;6.95;1.50;;;;;;;;;;5056761;28;20047;-89
2021/12/01 07:56:57;;;;;;;9.55;4.38;;;;;;;;;;5058094;28;20076;-88
2021/12/01 07:59:22;;;;;;;16.40;6.70;;;;;;;;;;5057299;28;20033;-88
2021/12/01 08:01:47;;;;;;;11.52;5.30;;;;;;;;;;5057339;28;20037;-88
2021/12/01 08:04:13;;;;;;;3.30;1.60;;;;;;;;;;5054975;28;20033;-88
2021/12/01 08:06:38;;;;;;;2.75;1.80;;;;;;;;;;5056018;28;20052;-88
2021/12/01 08:09:03;;;;;;;3.63;2.00;;;;;;;;;;5055736;28;20029;-88
2021/12/01 08:11:29;;;;;;;2.22;1.52;;;;;;;;;;5038053;28;20473;-88
2021/12/01 08:13:54;;;;;;;3.20;1.70;;;;;;;;;;5055402;28;20354;-87
2021/12/01 08:16:19;;;;;;;5.63;1.80;;;;;;;;;;5058001;28;20500;-80
2021/12/01 08:18:49;;;;;;;3.25;1.40;;;;;;;;;;5056142;28;20094;-78
2021/12/01 08:21:15;;;;;;;2.72;1.30;;;;;;;;;;5058480;28;20055;-78
2021/12/01 08:23:41;;;;;;;1.73;1.05;;;;;;;;;;5060257;28;20114;-85
2021/12/01 08:26:07;;;;;;;1.63;1.10;;;;;;;;;;5059141;28;20033;-86
2021/12/01 08:28:32;;;;;;;1.38;1.08;;;;;;;;;;5042496;28;20171;-88
2021/12/01 08:30:59;;;;;;;2.65;1.15;;;;;;;;;;5058628;28;20155;-89
2021/12/01 08:33:25;;;;;;;2.35;1.30;;;;;;;;;;5059648;28;20500;-86
2021/12/01 08:35:50;;;;;;;1.98;1.17;;;;;;;;;;5057334;28;20029;-89
2021/12/01 08:38:15;;;;;;;1.63;1.08;;;;;;;;;;5056952;28;20520;-86
2021/12/01 08:40:41;;;;;;;3.25;1.50;;;;;;;;;;5058616;28;20025;-89
2021/12/01 08:43:06;;;;;;;2.50;1.30;;;;;;;;;;5058936;28;20040;-88
2021/12/01 08:45:33;;;;;;;3.95;1.55;;;;;;;;;;5057144;28;20047;-88
2021/12/01 08:47:58;;;;;;;2.83;1.77;;;;;;;;;;5041221;28;20111;-88
2021/12/01 08:50:23;;;;;;;2.30;1.65;;;;;;;;;;5055364;28;20057;-88
2021/12/01 08:52:49;;;;;;;4.05;1.70;;;;;;;;;;5055083;28;20033;-88
2021/12/01 08:55:14;;;;;;;4.65;1.77;;;;;;;;;;5040227;28;20525;-88
2021/12/01 08:57:39;;;;;;;5.28;1.90;;;;;;;;;;5057028;28;20059;-88
2021/12/01 09:00:05;;;;;;;3.08;1.95;;;;;;;;;;5040532;28;20037;-88
2021/12/01 09:02:30;;;;;;;2.60;1.70;;;;;;;;;;5060282;28;20033;-87
2021/12/01 09:04:55;;;;;;;3.97;2.67;;;;;;;;;;5059995;28;20392;-87
2021/12/01 09:07:21;;;;;;;3.90;2.42;;;;;;;;;;5054569;28;20025;-88
2021/12/01 09:09:46;;;;;;;2.35;1.70;;;;;;;;;;5040556;28;20037;-86
2021/12/01 09:12:13;;;;;;;2.78;1.73;;;;;;;;;;5040364;28;20068;-88
2021/12/01 09:14:38;;;;;;;2.85;1.75;;;;;;;;;;5056818;28;20037;-87
2021/12/01 09:17:04;;;;;;;5.85;2.47;;;;;;;;;;5026410;28;20052;-85
2021/12/01 09:19:29;;;;;;;3.60;2.35;;;;;;;;;;5052042;28;20167;-89
2021/12/01 09:21:54;;;;;;;4.00;2.10;;;;;;;;;;5061477;28;20087;-88
2021/12/01 09:24:21;;;;;;;5.55;1.88;;;;;;;;;;5061025;28;20028;-88
2021/12/01 09:26:46;;;;;;;3.50;2.15;;;;;;;;;;5060891;28;20032;-89
2021/12/01 09:29:11;;;;;;;3.17;2.10;;;;;;;;;;5061113;28;20124;-88
2021/12/01 09:31:37;;;;;;;3.17;1.83;;;;;;;;;;5060744;28;20507;-88
2021/12/01 09:34:02;;;;;;;3.75;2.03;;;;;;;;;;5060224;28;20024;-88
2021/12/01 09:36:28;;;;;;;3.72;2.47;;;;;;;;;;5061617;28;20036;-88
2021/12/01 09:38:53;;;;;;;3.50;2.33;;;;;;;;;;5060124;28;20552;-88
2021/12/01 09:41:18;;;;;;;3.83;2.08;;;;;;;;;;5042847;28;20043;-88
2021/12/01 09:43:44;;;;;;;3.67;2.20;;;;;;;;;;5039355;28;20030;-88
2021/12/01 09:46:09;;;;;;;4.32;2.38;;;;;;;;;;5039220;28;20029;-88
2021/12/01 09:48:35;;;;;;;4.15;2.10;;;;;;;;;;5047252;28;20111;-88
2021/12/01 09:51:00;;;;;;;2.28;1.67;;;;;;;;;;5058044;28;20049;-88
2021/12/01 09:53:26;;;;;;;2.45;1.73;;;;;;;;;;5060398;28;20043;-88
2021/12/01 09:55:51;;;;;;;2.75;1.75;;;;;;;;;;5041899;28;20041;-87
2021/12/01 09:58:16;;;;;;;1.77;1.38;;;;;;;;;;5059177;28;20036;-88
2021/12/01 10:00:42;;;;;;;2.25;1.58;;;;;;;;;;5047623;28;20486;-88
2021/12/01 10:03:07;;;;;;;3.47;1.90;;;;;;;;;;5021244;28;20033;-88
2021/12/01 10:05:32;;;;;;;2.10;1.60;;;;;;;;;;5038318;28;20036;-88
2021/12/01 10:07:58;;;;;;;2.40;1.48;;;;;;;;;;5038538;28;20053;-88
2021/12/01 10:10:23;;;;;;;1.67;1.42;;;;;;;;;;5038610;28;20029;-86
2021/12/01 10:12:50;;;;;;;2.33;1.60;;;;;;;;;;5039706;28;20045;-88
2021/12/01 10:15:15;;;;;;;3.17;1.60;;;;;;;;;;5038605;28;20038;-88
2021/12/01 10:17:41;;;;;;;3.63;1.60;;;;;;;;;;5038329;28;20067;-88
2021/12/01 10:20:06;;;;;;;2.88;1.60;;;;;;;;;;5038392;28;20030;-88
2021/12/01 10:22:31;;;;;;;2.15;1.30;;;;;;;;;;5038540;28;20033;-88
2021/12/01 10:24:57;;;;;;;2.58;1.30;;;;;;;;;;5039586;28;20033;-88
2021/12/01 10:27:22;;;;;;;1.90;1.30;;;;;;;;;;5039448;28;20041;-88
2021/12/01 10:29:48;;;;;;;2.10;1.40;;;;;;;;;;5038075;28;20085;-88
2021/12/01 10:32:14;;;;;;;2.72;1.50;;;;;;;;;;5036618;28;20029;-87
2021/12/01 10:34:40;;;;;;;4.95;2.70;;;;;;;;;;5037475;28;20045;-87
2021/12/01 10:37:06;;;;;;;3.95;2.25;;;;;;;;;;5035686;28;20033;-87
2021/12/01 10:39:31;;;;;;;4.43;2.22;;;;;;;;;;5035111;28;20030;-87
2021/12/01 10:41:57;;;;;;;3.83;2.10;;;;;;;;;;5020465;28;20021;-88
2021/12/01 10:44:22;;;;;;;3.25;1.90;;;;;;;;;;5037945;28;20515;-88
2021/12/01 10:46:47;;;;;;;4.25;2.00;;;;;;;;;;5021185;28;20025;-88
2021/12/01 10:49:13;;;;;;;4.18;2.17;;;;;;;;;;5038448;28;20509;-88
2021/12/01 10:51:38;;;;;;;2.58;1.63;;;;;;;;;;5038577;28;20029;-88
2021/12/01 10:54:04;;;;;;;4.25;2.22;;;;;;;;;;5038596;28;20469;-88
2021/12/01 10:56:29;;;;;;;3.35;1.98;;;;;;;;;;5037732;28;20033;-88
2021/12/01 10:58:54;;;;;;;2.88;1.60;;;;;;;;;;5021098;28;20057;-88
2021/12/01 11:01:20;;;;;;;2.42;1.60;;;;;;;;;;5037483;28;20036;-89
2021/12/01 11:03:45;;;;;;;2.80;1.70;;;;;;;;;;5049148;28;20041;-87
2021/12/01 11:06:11;;;;;;;3.15;1.70;;;;;;;;;;5057596;28;20033;-88
2021/12/01 11:08:36;;;;;;;3.20;1.90;;;;;;;;;;5058068;28;20120;-88
2021/12/01 11:11:01;;;;;;;3.75;1.70;;;;;;;;;;5056187;28;20108;-88
2021/12/01 11:13:27;;;;;;;2.80;1.63;;;;;;;;;;5056655;28;20040;-88
2021/12/01 11:15:53;;;;;;;5.30;3.25;;;;;;;;;;5039001;28;20090;-88
2021/12/01 11:18:18;;;;;;;2.60;1.80;;;;;;;;;;5040163;28;20536;-88
2021/12/01 11:20:43;;;;;;;3.88;2.00;;;;;;;;;;5040246;28;20039;-88
2021/12/01 11:23:09;;;;;;;4.18;2.63;;;;;;;;;;5057106;28;20029;-88
2021/12/01 11:25:36;;;;;;;5.10;3.10;;;;;;;;;;5057973;28;20408;-88
2021/12/01 11:28:01;;;;;;;4.97;3.20;;;;;;;;;;5057453;28;20037;-88
2021/12/01 11:30:27;;;;;;;6.90;3.40;;;;;;;;;;5039408;28;20033;-88
2021/12/01 11:32:52;;;;;;;8.57;4.47;;;;;;;;;;5038758;28;20112;-88
2021/12/01 11:35:17;;;;;;;2.50;1.60;;;;;;;;;;5057014;28;20041;-88
2021/12/01 11:37:43;;;;;;;3.70;2.25;;;;;;;;;;5058501;28;20534;-88
2021/12/01 11:40:08;;;;;;;21.05;11.10;;;;;;;;;;5040812;28;20117;-88
2021/12/01 11:42:33;;;;;;;27.23;16.65;;;;;;;;;;5057799;28;20064;-89
2021/12/01 11:44:59;;;;;;;5.38;3.38;;;;;;;;;;5056304;28;20025;-88
2021/12/01 11:47:24;;;;;;;21.73;13.40;;;;;;;;;;5053788;28;20029;-89
2021/12/01 11:49:50;;;;;;;2.20;1.60;;;;;;;;;;5037562;28;20040;-88
2021/12/01 11:52:15;;;;;;;2.20;1.20;;;;;;;;;;5057993;28;20033;-89
2021/12/01 11:54:40;;;;;;;1.38;1.08;;;;;;;;;;5042008;28;20036;-88
2021/12/01 11:57:06;;;;;;;1.58;0.90;;;;;;;;;;5041180;28;20068;-88
2021/12/01 11:59:31;;;;;;;1.20;1.00;;;;;;;;;;5042873;28;20025;-88
2021/12/01 12:01:57;;;;;;;1.52;1.00;;;;;;;;;;5061341;28;20120;-88
2021/12/01 12:04:22;;;;;;;1.95;0.90;;;;;;;;;;5062688;28;20021;-88
2021/12/01 12:06:48;;;;;;;1.77;1.20;;;;;;;;;;5044634;28;20033;-89
2021/12/01 12:09:13;;;;;;;1.75;0.98;;;;;;;;;;5063657;28;20362;-89
2021/12/01 12:11:38;;;;;;;1.67;0.75;;;;;;;;;;5075997;28;20102;-88
2021/12/01 12:14:04;;;;;;;1.27;1.00;;;;;;;;;;5064222;28;20469;-88
2021/12/01 12:16:29;;;;;;;1.50;0.90;;;;;;;;;;5062336;28;20044;-88
2021/12/01 12:18:55;;;;;;;1.15;0.90;;;;;;;;;;5062560;28;20377;-88
2021/12/01 12:21:32;;;;;;;4.90;1.00;;;;;;;;;;5063259;28;20053;-89
2021/12/01 12:23:58;;;;;;;1.17;0.98;;;;;;;;;;5045572;28;20040;-88
2021/12/01 12:26:23;;;;;;;1.38;1.00;;;;;;;;;;5063350;28;20029;-89
2021/12/01 12:28:48;;;;;;;1.58;1.23;;;;;;;;;;5062960;28;20082;-89
2021/12/01 12:31:14;;;;;;;6.45;1.40;;;;;;;;;;5063432;28;20102;-89
2021/12/01 12:33:39;;;;;;;2.83;1.20;;;;;;;;;;5063501;28;20035;-88
2021/12/01 12:36:04;;;;;;;2.60;1.48;;;;;;;;;;5061792;28;20053;-88
2021/12/01 12:38:30;;;;;;;2.40;1.65;;;;;;;;;;5063558;28;20037;-89
2021/12/01 12:40:55;;;;;;;2.50;1.60;;;;;;;;;;5045971;28;20029;-88
2021/12/01 12:43:21;;;;;;;1.83;1.48;;;;;;;;;;5062721;28;20037;-88
2021/12/01 12:45:46;;;;;;;2.47;1.50;;;;;;;;;;5062053;28;20502;-89
2021/12/01 12:48:12;;;;;;;3.10;1.35;;;;;;;;;;5061400;28;20029;-88
2021/12/01 12:50:37;;;;;;;2.05;1.30;;;;;;;;;;5062932;28;20058;-88
2021/12/01 12:53:02;;;;;;;1.10;1.00;;;;;;;;;;5061572;28;20037;-89
2021/12/01 12:55:28;;;;;;;1.45;1.20;;;;;;;;;;5045182;28;20037;-88
2021/12/01 12:57:53;;;;;;;1.83;1.10;;;;;;;;;;5062765;28;20040;-89
2021/12/01 13:00:19;;;;;;;1.80;1.20;;;;;;;;;;5061501;28;20036;-89
2021/12/01 13:02:44;;;;;;;1.33;1.10;;;;;;;;;;5044154;28;20043;-88
2021/12/01 13:05:09;;;;;;;2.10;1.20;;;;;;;;;;5062362;28;20067;-88
2021/12/01 13:07:35;;;;;;;1.67;1.20;;;;;;;;;;5060276;28;20040;-89
2021/12/01 13:10:00;;;;;;;3.33;1.30;;;;;;;;;;5061419;28;20029;-88
2021/12/01 13:12:25;;;;;;;5.20;1.20;;;;;;;;;;5044584;28;20041;-89
2021/12/01 13:14:51;;;;;;;1.65;1.15;;;;;;;;;;5058826;28;20033;-88
2021/12/01 13:17:16;;;;;;;1.70;1.13;;;;;;;;;;5061117;28;20072;-88
2021/12/01 13:19:41;;;;;;;3.47;1.13;;;;;;;;;;5061792;28;20035;-88
2021/12/01 13:22:07;;;;;;;5.15;1.20;;;;;;;;;;5061376;28;20064;-88
2021/12/01 13:24:32;;;;;;;3.65;1.90;;;;;;;;;;5060727;28;20041;-88
2021/12/01 13:26:57;;;;;;;5.78;2.90;;;;;;;;;;5060940;28;20032;-88
2021/12/01 13:29:23;;;;;;;6.38;2.15;;;;;;;;;;5060754;28;20040;-88
2021/12/01 13:31:48;;;;;;;3.10;1.85;;;;;;;;;;5060177;28;20037;-88
2021/12/01 13:34:14;;;;;;;4.18;2.38;;;;;;;;;;5060057;28;20110;-88
2021/12/01 13:36:39;;;;;;;2.22;1.35;;;;;;;;;;5060069;28;20043;-88
2021/12/01 13:39:04;;;;;;;2.13;1.30;;;;;;;;;;5059493;28;20055;-88
2021/12/01 13:41:30;;;;;;;1.65;1.15;;;;;;;;;;5060341;28;20829;-88
2021/12/01 13:43:55;;;;;;;2.53;1.67;;;;;;;;;;5061020;28;20079;-87
2021/12/01 13:46:21;;;;;;;2.95;1.70;;;;;;;;;;5065042;28;20040;-88
2021/12/01 13:48:46;;;;;;;4.15;1.40;;;;;;;;;;5059764;28;20500;-88
2021/12/01 13:51:11;;;;;;;3.30;1.33;;;;;;;;;;5059271;28;20033;-88
2021/12/01 13:53:37;;;;;;;3.22;1.42;;;;;;;;;;5060767;28;20056;-88
2021/12/01 13:56:02;;;;;;;2.00;1.20;;;;;;;;;;5057823;28;20392;-88
2021/12/01 13:58:27;;;;;;;4.30;1.40;;;;;;;;;;5041596;28;20037;-88
2021/12/01 14:00:53;;;;;;;3.25;1.40;;;;;;;;;;5059721;28;20449;-89
2021/12/01 14:03:18;;;;;;;2.28;1.50;;;;;;;;;;5058858;28;20087;-88
2021/12/01 14:05:46;;;;;;;4.75;1.80;;;;;;;;;;5057188;28;20032;-88
2021/12/01 14:08:11;;;;;;;3.72;2.05;;;;;;;;;;5059455;28;20033;-88
2021/12/01 14:10:36;;;;;;;4.20;2.03;;;;;;;;;;5057696;28;20052;-88
2021/12/01 14:13:02;;;;;;;2.75;1.70;;;;;;;;;;5060139;28;20041;-87
2021/12/01 14:15:27;;;;;;;3.80;1.70;;;;;;;;;;5041736;28;20025;-88
2021/12/01 14:17:52;;;;;;;4.05;1.60;;;;;;;;;;5058411;28;20041;-89
2021/12/01 14:20:17;;;;;;;2.53;1.50;;;;;;;;;;5060447;28;20029;-88
2021/12/01 14:22:43;;;;;;;2.63;1.90;;;;;;;;;;5034025;28;20045;-88
2021/12/01 14:25:08;;;;;;;2.65;1.65;;;;;;;;;;5041404;28;20049;-88
2021/12/01 14:27:34;;;;;;;2.55;1.80;;;;;;;;;;5037270;28;20036;-88
2021/12/01 14:29:59;;;;;;;2.22;1.70;;;;;;;;;;5038487;28;20033;-87
2021/12/01 14:32:24;;;;;;;2.50;1.70;;;;;;;;;;5038242;28;20037;-88
2021/12/01 14:34:50;;;;;;;2.15;1.75;;;;;;;;;;5046356;28;20124;-88
2021/12/01 14:37:15;;;;;;;1.88;1.40;;;;;;;;;;5060487;28;20041;-88